Time;durP1;ratioP1;P1;durP2;ratioP2;P2;SDS_P1;SDS_P2;PMS_P1;PMS_P2;Temp;Humidity;BMP_temperature;BMP_pressure;BME280_temperature;BME280_humidity;BME280_pressure;Samples;Min_cycle;Max_cycle;Signal;HPM_P1;HPM_P2
2022/01/16 00:01:21;;;;;;;38.80;19.40;;;3.80;98.10;;;;;;5065631;28;20049;-61
2022/01/16 00:06:32;;;;;;;34.95;17.77;;;3.70;98.00;;;;;;5063573;28;20144;-61
2022/01/16 00:09:01;;;;;;;36.45;17.98;;;3.70;98.00;;;;;;5062258;28;20052;-61
2022/01/16 00:11:29;;;;;;;37.15;19.10;;;3.70;97.80;;;;;;5059077;28;20045;-61
2022/01/16 00:13:56;;;;;;;42.67;19.83;;;3.70;97.90;;;;;;5060357;28;20148;-61
2022/01/16 00:16:23;;;;;;;37.75;18.55;;;3.70;97.90;;;;;;5061607;28;20056;-61
2022/01/16 00:18:50;;;;;;;39.50;20.27;;;3.70;97.90;;;;;;5062764;28;20661;-60
2022/01/16 00:21:18;;;;;;;41.65;19.15;;;3.70;97.90;;;;;;5064144;28;22144;-60
2022/01/16 00:23:46;;;;;;;40.90;19.70;;;3.80;97.90;;;;;;5064923;28;20059;-61
2022/01/16 00:26:14;;;;;;;43.78;20.98;;;3.80;97.80;;;;;;5064514;28;20051;-61
2022/01/16 00:28:41;;;;;;;41.70;20.25;;;3.80;97.80;;;;;;5064237;28;20075;-62
2022/01/16 00:31:08;;;;;;;38.90;20.02;;;3.80;97.90;;;;;;5064992;28;20044;-62
2022/01/16 00:33:38;;;;;;;42.20;20.80;;;3.80;97.90;;;;;;5066016;28;20142;-62
2022/01/16 00:36:06;;;;;;;40.88;19.08;;;3.80;97.60;;;;;;5068400;27;20084;-62
2022/01/16 00:38:33;;;;;;;39.85;19.67;;;3.70;97.30;;;;;;5067154;28;20193;-61
2022/01/16 00:41:00;;;;;;;42.17;20.33;;;3.60;97.30;;;;;;5067202;28;20048;-61
2022/01/16 00:43:28;;;;;;;44.67;21.83;;;3.50;97.40;;;;;;5067267;28;20053;-61
2022/01/16 00:45:55;;;;;;;46.38;20.73;;;3.40;97.40;;;;;;5066888;28;20801;-62
2022/01/16 00:48:22;;;;;;;48.88;21.52;;;3.30;97.60;;;;;;5067629;28;20187;-62
2022/01/16 00:50:49;;;;;;;49.45;21.90;;;3.30;97.80;;;;;;5067526;28;20063;-62
2022/01/16 00:53:16;;;;;;;48.85;22.27;;;3.30;97.80;;;;;;5067484;28;20053;-62
2022/01/16 00:55:43;;;;;;;50.38;22.88;;;3.40;97.80;;;;;;5067283;28;20952;-62
2022/01/16 00:58:10;;;;;;;48.35;21.50;;;3.40;97.90;;;;;;5066831;28;20045;-62
2022/01/16 01:00:38;;;;;;;54.30;24.65;;;3.40;98.10;;;;;;5067836;28;20053;-62
2022/01/16 01:03:06;;;;;;;52.38;23.90;;;3.50;98.00;;;;;;5067305;28;20057;-62
2022/01/16 01:05:34;;;;;;;53.17;24.33;;;3.50;98.00;;;;;;5067533;28;20056;-62
2022/01/16 01:08:02;;;;;;;50.42;24.48;;;3.60;98.00;;;;;;5067160;28;20053;-62
2022/01/16 01:10:32;;;;;;;49.40;23.58;;;3.60;97.90;;;;;;5066771;28;20048;-62
2022/01/16 01:13:09;;;;;;;48.50;24.38;;;3.60;97.80;;;;;;5066452;28;20049;-62
2022/01/16 01:15:45;;;;;;;50.08;25.20;;;3.60;97.80;;;;;;5066637;28;20049;-62
2022/01/16 01:18:12;;;;;;;50.20;24.40;;;3.60;97.60;;;;;;5067324;28;20054;-62
2022/01/16 01:20:40;;;;;;;50.92;24.75;;;3.60;97.60;;;;;;5067239;28;20049;-62
2022/01/16 01:23:08;;;;;;;48.15;22.90;;;3.60;97.60;;;;;;5064832;28;20057;-62
2022/01/16 01:25:35;;;;;;;46.45;23.88;;;3.90;97.60;;;;;;5066870;28;20060;-62
2022/01/16 01:28:02;;;;;;;45.63;24.77;;;3.60;97.60;;;;;;5065955;28;20060;-62
2022/01/16 01:30:28;;;;;;;46.95;24.33;;;3.70;97.60;;;;;;5065194;28;20048;-62
2022/01/16 01:32:58;;;;;;;47.75;24.80;;;3.70;97.60;;;;;;5066115;28;20049;-62
2022/01/16 01:35:26;;;;;;;47.63;23.88;;;3.70;97.60;;;;;;5066773;28;20067;-62
2022/01/16 01:37:53;;;;;;;49.05;24.35;;;3.80;97.50;;;;;;5065539;28;20104;-62
2022/01/16 01:40:24;;;;;;;49.72;25.92;;;3.70;97.30;;;;;;5065715;27;20049;-62
2022/01/16 01:43:04;;;;;;;53.90;25.23;;;3.70;97.30;;;;;;5065773;28;20052;-61
2022/01/16 01:51:12;;;;;;;53.38;26.02;;;3.60;97.30;;;;;;5065929;27;20058;-62
2022/01/16 01:53:40;;;;;;;56.72;27.17;;;3.50;97.40;;;;;;5067113;28;20143;-62
2022/01/16 01:56:10;;;;;;;46.08;24.45;;;3.50;97.50;;;;;;5065386;28;21091;-62
2022/01/16 01:58:36;;;;;;;55.35;25.48;;;3.50;97.50;;;;;;5066135;28;20052;-62
2022/01/16 02:01:04;;;;;;;51.03;26.10;;;3.60;97.60;;;;;;5066700;28;20060;-62
2022/01/16 02:03:42;;;;;;;59.42;27.55;;;3.60;97.60;;;;;;5066751;27;20051;-62
2022/01/16 02:06:10;;;;;;;57.85;25.85;;;3.60;97.60;;;;;;5065271;28;20056;-62
2022/01/16 02:08:38;;;;;;;56.05;26.20;;;3.50;97.70;;;;;;5066733;27;20052;-62
2022/01/16 02:11:05;;;;;;;57.08;27.20;;;3.60;97.80;;;;;;5065954;28;20059;-62
2022/01/16 02:13:36;;;;;;;55.22;26.15;;;3.50;97.90;;;;;;5065872;28;20052;-62
2022/01/16 02:32:49;;;;;;;74.80;27.92;;;3.40;98.40;;;;;;5065197;28;20056;-62
2022/01/16 02:35:15;;;;;;;72.25;26.60;;;3.40;98.50;;;;;;5064698;28;20503;-62
2022/01/16 02:37:42;;;;;;;62.88;27.88;;;3.40;98.60;;;;;;5064621;28;20057;-62
2022/01/16 02:40:18;;;;;;;67.10;28.10;;;3.30;98.70;;;;;;5063699;28;20409;-62
2022/01/16 02:42:50;;;;;;;71.05;27.20;;;3.40;98.80;;;;;;5063561;27;20113;-61
2022/01/16 02:45:29;;;;;;;69.93;27.73;;;3.40;98.80;;;;;;5065225;28;20144;-62
2022/01/16 02:47:58;;;;;;;75.13;27.77;;;3.40;98.80;;;;;;5065782;28;20060;-62
2022/01/16 02:50:25;;;;;;;71.53;28.27;;;3.40;98.70;;;;;;5064472;28;20148;-62
2022/01/16 02:52:52;;;;;;;63.85;26.98;;;3.40;98.70;;;;;;5066277;28;21188;-62
2022/01/16 02:55:22;;;;;;;71.30;28.75;;;3.40;98.70;;;;;;5064762;28;20055;-62
2022/01/16 02:57:49;;;;;;;64.32;26.35;;;3.40;98.80;;;;;;5064949;28;20100;-61
2022/01/16 03:00:17;;;;;;;73.07;28.77;;;3.30;98.90;;;;;;5065380;28;20048;-62
2022/01/16 03:02:44;;;;;;;68.68;28.42;;;3.20;99.00;;;;;;5063429;28;20056;-62
2022/01/16 03:05:13;;;;;;;71.93;28.08;;;3.30;99.10;;;;;;5064580;27;20053;-62
2022/01/16 03:07:40;;;;;;;64.60;27.42;;;3.30;99.10;;;;;;5065088;28;20055;-62
2022/01/16 03:13:01;;;;;;;60.88;25.42;;;3.30;99.30;;;;;;5052775;28;20056;-62
2022/01/16 03:15:28;;;;;;;73.00;29.08;;;3.30;99.40;;;;;;5063261;28;20060;-62
2022/01/16 03:23:24;;;;;;;65.70;26.30;;;3.30;99.60;;;;;;5064150;28;20048;-62
2022/01/16 03:25:52;;;;;;;68.25;26.27;;;3.30;99.60;;;;;;5064599;28;20054;-62
2022/01/16 03:28:21;;;;;;;66.50;25.30;;;3.30;99.60;;;;;;5063645;28;20053;-61
2022/01/16 03:30:48;;;;;;;67.38;27.30;;;3.30;99.70;;;;;;5064225;28;20202;-62
2022/01/16 03:33:17;;;;;;;71.70;26.92;;;3.30;99.70;;;;;;5064526;28;20053;-61
2022/01/16 03:35:44;;;;;;;62.15;26.83;;;3.30;99.80;;;;;;5064398;28;20759;-61
2022/01/16 03:38:11;;;;;;;66.22;26.13;;;3.30;99.80;;;;;;5063473;28;20053;-62
2022/01/16 03:40:38;;;;;;;71.28;27.50;;;3.30;99.80;;;;;;5064684;28;20048;-62
2022/01/16 03:43:12;;;;;;;73.07;28.00;;;3.30;99.80;;;;;;5063805;28;20045;-62
2022/01/16 03:45:42;;;;;;;69.65;27.48;;;3.30;99.90;;;;;;5064047;28;20081;-61
2022/01/16 03:48:08;;;;;;;68.93;27.67;;;3.40;99.90;;;;;;5064597;28;20053;-62
2022/01/16 03:50:36;;;;;;;71.22;28.75;;;3.40;99.90;;;;;;5063342;27;20435;-62
2022/01/16 03:53:03;;;;;;;68.28;26.73;;;3.40;99.90;;;;;;5063827;28;20056;-61
2022/01/16 03:55:31;;;;;;;65.88;26.02;;;3.30;99.90;;;;;;5064752;28;20053;-62
2022/01/16 03:57:58;;;;;;;76.03;29.55;;;3.40;99.90;;;;;;5062939;28;20558;-61
2022/01/16 04:00:25;;;;;;;73.97;29.08;;;3.40;99.90;;;;;;5064653;28;20856;-62
2022/01/16 04:02:53;;;;;;;69.15;29.77;;;3.40;99.90;;;;;;5063815;28;20067;-62
2022/01/16 04:05:20;;;;;;;80.65;28.73;;;3.50;99.90;;;;;;5063415;28;20052;-61
2022/01/16 04:07:48;;;;;;;68.30;28.83;;;3.50;99.90;;;;;;5064758;28;20582;-61
2022/01/16 04:10:15;;;;;;;85.22;31.23;;;3.50;99.90;;;;;;5064947;28;21289;-62
2022/01/16 04:12:45;;;;;;;72.40;27.92;;;3.50;99.90;;;;;;5062771;28;20048;-62
2022/01/16 04:17:58;;;;;;;80.07;27.92;;;3.50;99.90;;;;;;5065627;28;20054;-62
2022/01/16 04:20:25;;;;;;;71.40;28.67;;;3.50;99.90;;;;;;5063254;28;20053;-62
2022/01/16 04:22:52;;;;;;;82.72;29.90;;;3.50;99.90;;;;;;5063714;28;20673;-62
2022/01/16 04:25:19;;;;;;;80.47;31.17;;;3.50;99.90;;;;;;5064834;28;20049;-61
2022/01/16 04:27:46;;;;;;;80.68;30.77;;;3.50;99.90;;;;;;5061907;27;20114;-61
2022/01/16 04:30:13;;;;;;;79.70;28.20;;;3.50;99.90;;;;;;5064139;28;20613;-62
2022/01/16 04:32:40;;;;;;;79.15;29.00;;;3.60;99.90;;;;;;5063900;28;20064;-62
2022/01/16 04:35:09;;;;;;;74.68;28.45;;;3.60;99.90;;;;;;5063600;28;20058;-62
2022/01/16 04:37:36;;;;;;;80.45;31.30;;;3.70;99.90;;;;;;5064045;27;20055;-61
2022/01/16 04:40:04;;;;;;;78.93;30.50;;;3.70;99.90;;;;;;5063100;28;20053;-62
2022/01/16 04:45:16;;;;;;;82.18;29.38;;;3.70;99.90;;;;;;5064149;28;20506;-61
2022/01/16 04:47:43;;;;;;;84.05;31.73;;;3.70;99.90;;;;;;5063921;28;20053;-62
2022/01/16 04:50:13;;;;;;;84.90;30.20;;;3.70;99.90;;;;;;5064353;28;22361;-62
2022/01/16 04:52:42;;;;;;;81.95;32.25;;;3.80;99.90;;;;;;5064327;28;20057;-62
2022/01/16 04:55:10;;;;;;;74.10;28.88;;;3.80;99.90;;;;;;5062120;28;20056;-62
2022/01/16 04:57:37;;;;;;;87.00;32.33;;;3.80;99.90;;;;;;5062310;28;20057;-61
2022/01/16 05:00:07;;;;;;;90.13;31.40;;;3.80;99.90;;;;;;5062201;28;20056;-61
2022/01/16 05:02:34;;;;;;;93.93;31.77;;;3.90;99.90;;;;;;5062047;28;20099;-61
2022/01/16 05:05:01;;;;;;;91.40;31.77;;;3.90;99.90;;;;;;5063835;28;20056;-61
2022/01/16 05:07:30;;;;;;;86.63;32.08;;;3.80;99.90;;;;;;5066458;28;20837;-61
2022/01/16 05:09:57;;;;;;;87.95;31.40;;;3.90;99.90;;;;;;5065916;28;20056;-61
2022/01/16 05:12:29;;;;;;;90.15;32.67;;;3.90;99.90;;;;;;5066128;28;20057;-61
2022/01/16 05:17:41;;;;;;;97.57;32.70;;;4.00;99.90;;;;;;5066855;28;20045;-62
2022/01/16 05:20:09;;;;;;;93.13;33.33;;;4.00;99.90;;;;;;5064290;27;20048;-61
2022/01/16 05:22:37;;;;;;;85.43;32.63;;;4.10;99.90;;;;;;5065249;28;20048;-61
2022/01/16 05:25:05;;;;;;;84.68;32.28;;;4.00;99.90;;;;;;5065503;28;20074;-61
2022/01/16 05:27:31;;;;;;;94.07;31.65;;;4.10;99.90;;;;;;5065510;28;20226;-62
2022/01/16 05:29:58;;;;;;;93.97;32.10;;;4.10;99.90;;;;;;5065102;27;20045;-62
2022/01/16 05:32:25;;;;;;;90.78;33.60;;;4.10;99.90;;;;;;5065145;28;20044;-62
2022/01/16 05:34:52;;;;;;;99.50;33.95;;;4.10;99.90;;;;;;5066687;28;20052;-62
2022/01/16 05:37:19;;;;;;;93.30;34.78;;;4.10;99.90;;;;;;5065862;28;20086;-62
2022/01/16 05:39:49;;;;;;;97.53;33.70;;;4.20;99.90;;;;;;5066655;28;20052;-61
2022/01/16 05:42:16;;;;;;;98.00;34.72;;;4.20;99.90;;;;;;5066619;28;20179;-61
2022/01/16 05:44:43;;;;;;;94.88;33.90;;;4.20;99.90;;;;;;5063416;28;20059;-61
2022/01/16 05:47:12;;;;;;;84.32;32.63;;;4.20;99.90;;;;;;5066198;28;20527;-61
2022/01/16 05:49:41;;;;;;;104.07;34.42;;;4.20;99.90;;;;;;5066036;28;20068;-62
2022/01/16 05:52:08;;;;;;;87.35;33.63;;;4.20;99.90;;;;;;5066006;28;20067;-62
2022/01/16 05:54:36;;;;;;;112.30;35.85;;;4.20;99.90;;;;;;5066464;28;20056;-61
2022/01/16 05:57:05;;;;;;;105.45;34.67;;;3.90;99.90;;;;;;5065752;27;20053;-62
2022/01/16 05:59:32;;;;;;;95.32;32.65;;;4.20;99.90;;;;;;5064841;28;20045;-62
2022/01/16 06:01:59;;;;;;;96.57;33.80;;;4.20;99.90;;;;;;5065518;28;20048;-62
2022/01/16 06:04:26;;;;;;;94.47;35.75;;;4.20;99.90;;;;;;5065420;28;20053;-61
2022/01/16 06:06:53;;;;;;;100.05;34.17;;;4.30;99.90;;;;;;5065125;28;20210;-61
2022/01/16 06:09:19;;;;;;;92.53;33.63;;;4.20;99.90;;;;;;5064954;27;20057;-62
2022/01/16 06:11:46;;;;;;;102.95;34.50;;;4.30;99.90;;;;;;5066278;28;20049;-61
2022/01/16 06:14:14;;;;;;;87.57;33.42;;;4.30;99.90;;;;;;5065408;28;20048;-61
2022/01/16 06:16:41;;;;;;;92.97;34.78;;;4.30;99.90;;;;;;5065640;27;20056;-61
2022/01/16 06:19:08;;;;;;;90.10;33.60;;;4.30;99.90;;;;;;5065450;28;20057;-62
2022/01/16 06:21:35;;;;;;;95.72;34.33;;;4.30;99.90;;;;;;5065874;28;20051;-61
2022/01/16 06:24:03;;;;;;;88.47;34.28;;;4.40;99.90;;;;;;5065144;28;20512;-61
2022/01/16 06:26:30;;;;;;;97.53;34.85;;;4.50;99.90;;;;;;5064753;28;20590;-62
2022/01/16 06:28:57;;;;;;;85.63;35.30;;;4.50;99.90;;;;;;5065461;28;20059;-62
2022/01/16 06:31:26;;;;;;;93.63;34.47;;;4.50;99.90;;;;;;5066021;28;21180;-61
2022/01/16 06:33:52;;;;;;;98.90;37.47;;;4.50;99.90;;;;;;5065291;28;20520;-62
2022/01/16 06:36:19;;;;;;;86.45;35.17;;;4.60;99.90;;;;;;5065530;28;20754;-62
2022/01/16 06:38:47;;;;;;;94.65;35.05;;;4.60;99.90;;;;;;5064927;28;20049;-62
2022/01/16 06:41:13;;;;;;;84.05;33.42;;;4.70;99.90;;;;;;5064865;28;22232;-61
2022/01/16 06:43:40;;;;;;;83.13;33.10;;;4.70;99.90;;;;;;5065288;28;20045;-61
2022/01/16 06:46:07;;;;;;;95.15;36.45;;;4.70;99.90;;;;;;5065293;28;20048;-62
2022/01/16 06:48:35;;;;;;;87.22;35.35;;;4.70;99.90;;;;;;5063997;28;20045;-62
2022/01/16 06:51:02;;;;;;;91.30;37.35;;;4.80;99.90;;;;;;5065566;28;20057;-61
2022/01/16 06:53:29;;;;;;;95.70;36.22;;;4.80;99.90;;;;;;5065648;28;20049;-62
2022/01/16 06:55:56;;;;;;;85.57;37.22;;;4.80;99.90;;;;;;5064735;28;20053;-61
2022/01/16 06:58:23;;;;;;;96.57;37.22;;;4.80;99.90;;;;;;5064174;28;20052;-62
2022/01/16 07:00:50;;;;;;;88.88;35.40;;;4.80;99.90;;;;;;5066068;28;20057;-62
2022/01/16 07:03:17;;;;;;;88.63;35.22;;;4.90;99.90;;;;;;5064794;28;20138;-62
2022/01/16 07:05:46;;;;;;;84.28;35.05;;;4.90;99.90;;;;;;5064965;28;21221;-62
2022/01/16 07:08:13;;;;;;;81.68;35.88;;;4.90;99.90;;;;;;5065406;28;20060;-61
2022/01/16 07:10:40;;;;;;;87.78;35.05;;;4.90;99.90;;;;;;5064785;28;20068;-61
2022/01/16 07:13:06;;;;;;;87.13;35.78;;;5.00;99.90;;;;;;5064870;27;20514;-61
2022/01/16 07:15:33;;;;;;;83.97;35.83;;;5.00;99.90;;;;;;5065479;27;20057;-62
2022/01/16 07:18:00;;;;;;;83.53;35.50;;;5.10;99.90;;;;;;5064872;28;20519;-62
2022/01/16 07:20:27;;;;;;;79.63;33.67;;;5.10;99.90;;;;;;5065181;28;20761;-62
2022/01/16 07:22:55;;;;;;;80.05;33.47;;;5.20;99.90;;;;;;5065020;28;20044;-62
2022/01/16 07:25:22;;;;;;;85.75;34.33;;;5.20;99.90;;;;;;5064878;28;20056;-61
2022/01/16 07:27:49;;;;;;;88.63;35.65;;;5.20;99.90;;;;;;5063841;28;20052;-62
2022/01/16 07:30:16;;;;;;;83.82;34.88;;;5.20;99.90;;;;;;5063907;28;20722;-62
2022/01/16 07:32:43;;;;;;;75.72;33.47;;;5.20;99.90;;;;;;5064870;28;20058;-62
2022/01/16 07:35:10;;;;;;;82.43;34.95;;;5.30;99.90;;;;;;5064022;28;20726;-62
2022/01/16 07:37:37;;;;;;;71.45;32.13;;;5.30;99.90;;;;;;5063476;28;20148;-62
2022/01/16 07:40:09;;;;;;;68.53;32.55;;;5.40;99.90;;;;;;5063263;28;20053;-62
2022/01/16 07:42:36;;;;;;;76.45;33.80;;;5.40;99.90;;;;;;5063172;27;20052;-61
2022/01/16 07:45:03;;;;;;;73.57;33.65;;;5.40;99.90;;;;;;5062587;28;20102;-61
2022/01/16 07:47:30;;;;;;;74.75;33.17;;;5.40;99.90;;;;;;5063680;27;20799;-62
2022/01/16 07:49:57;;;;;;;69.55;33.88;;;5.40;99.90;;;;;;5065031;28;20055;-62
2022/01/16 07:52:23;;;;;;;71.35;32.70;;;5.40;99.90;;;;;;5063293;28;20946;-62
2022/01/16 07:54:50;;;;;;;69.40;33.30;;;5.50;99.90;;;;;;5065275;28;20049;-62
2022/01/16 07:57:19;;;;;;;73.78;31.92;;;5.50;99.90;;;;;;5064446;28;20053;-62
2022/01/16 07:59:46;;;;;;;76.75;33.92;;;5.50;99.90;;;;;;5062711;28;21253;-62
2022/01/16 08:02:12;;;;;;;62.70;30.13;;;5.50;99.90;;;;;;5064900;28;20529;-62
2022/01/16 08:04:39;;;;;;;67.35;31.15;;;5.50;99.90;;;;;;5065008;28;20063;-62
2022/01/16 08:07:09;;;;;;;62.47;32.25;;;5.50;99.90;;;;;;5062890;28;20049;-62
2022/01/16 08:09:36;;;;;;;70.25;30.50;;;5.50;99.90;;;;;;5064843;28;20053;-62
2022/01/16 08:12:03;;;;;;;59.20;29.48;;;5.50;99.90;;;;;;5064309;28;20064;-61
2022/01/16 08:14:32;;;;;;;61.45;31.15;;;5.50;99.90;;;;;;5062474;28;20137;-62
2022/01/16 08:17:00;;;;;;;65.60;32.45;;;5.60;99.90;;;;;;5064150;28;20055;-62
2022/01/16 08:19:27;;;;;;;58.70;29.73;;;5.60;99.90;;;;;;5064757;28;20478;-62
2022/01/16 08:21:55;;;;;;;55.17;29.75;;;5.60;99.90;;;;;;5064182;28;20059;-62
2022/01/16 08:24:22;;;;;;;54.25;27.85;;;5.70;99.90;;;;;;5064241;27;20063;-62
2022/01/16 08:26:49;;;;;;;49.08;27.55;;;5.80;99.90;;;;;;5064540;28;20056;-62
2022/01/16 08:29:16;;;;;;;53.17;27.75;;;5.80;99.90;;;;;;5062284;28;20053;-62
2022/01/16 08:31:45;;;;;;;48.67;26.50;;;5.80;99.90;;;;;;5064553;28;20054;-62
2022/01/16 08:34:12;;;;;;;49.60;26.00;;;5.80;99.90;;;;;;5063306;28;20179;-62
2022/01/16 08:36:39;;;;;;;47.33;26.48;;;5.90;99.90;;;;;;5063742;28;20053;-61
2022/01/16 08:39:06;;;;;;;46.83;26.02;;;5.90;99.90;;;;;;5065621;28;20048;-62
2022/01/16 08:41:33;;;;;;;45.80;25.15;;;6.00;99.90;;;;;;5067355;28;20060;-62
2022/01/16 08:44:00;;;;;;;44.45;25.25;;;6.00;99.90;;;;;;5067359;28;20083;-62
2022/01/16 08:46:27;;;;;;;46.38;25.40;;;6.00;99.90;;;;;;5066414;28;20715;-62
2022/01/16 08:48:55;;;;;;;41.83;23.33;;;6.10;99.90;;;;;;5068124;28;20053;-62
2022/01/16 08:51:22;;;;;;;36.28;22.52;;;6.10;99.90;;;;;;5066591;28;20056;-62
2022/01/16 08:53:49;;;;;;;49.67;23.83;;;6.20;99.90;;;;;;5067679;28;20056;-62
2022/01/16 08:56:17;;;;;;;44.97;24.17;;;6.20;99.90;;;;;;5067087;28;20055;-62
2022/01/16 08:58:43;;;;;;;40.20;23.13;;;6.20;99.90;;;;;;5066806;28;20443;-61
2022/01/16 09:01:10;;;;;;;47.63;23.38;;;6.30;99.90;;;;;;5066409;27;20044;-62
2022/01/16 09:03:38;;;;;;;43.65;23.55;;;6.30;99.90;;;;;;5066856;28;20053;-61
2022/01/16 09:06:07;;;;;;;43.67;23.55;;;6.30;99.90;;;;;;5066527;28;20092;-62
2022/01/16 09:08:34;;;;;;;46.35;24.65;;;6.40;99.90;;;;;;5067652;27;20053;-61
2022/01/16 09:11:01;;;;;;;44.92;24.20;;;6.40;99.90;;;;;;5064991;28;20052;-62
2022/01/16 09:13:28;;;;;;;40.65;22.48;;;6.40;99.90;;;;;;5067048;28;20100;-61
2022/01/16 09:15:56;;;;;;;40.85;24.08;;;6.40;99.90;;;;;;5066463;28;22132;-62
2022/01/16 09:18:24;;;;;;;46.53;23.15;;;6.40;99.90;;;;;;5066237;28;20177;-62
2022/01/16 09:20:51;;;;;;;35.97;21.27;;;6.50;99.90;;;;;;5066383;28;20051;-62
2022/01/16 09:23:19;;;;;;;40.08;22.63;;;6.50;99.90;;;;;;5066831;28;22300;-62
2022/01/16 09:25:46;;;;;;;36.05;21.73;;;6.50;99.90;;;;;;5066509;28;20049;-61
2022/01/16 09:28:13;;;;;;;40.67;21.55;;;6.60;99.90;;;;;;5066918;28;20064;-62
2022/01/16 09:30:40;;;;;;;40.00;20.65;;;6.60;99.90;;;;;;5067068;28;20052;-61
2022/01/16 09:33:06;;;;;;;37.72;21.08;;;6.60;99.90;;;;;;5066513;28;20049;-62
2022/01/16 09:35:33;;;;;;;33.15;20.15;;;6.60;99.90;;;;;;5067257;28;20049;-62
2022/01/16 09:38:00;;;;;;;31.15;19.80;;;6.70;99.90;;;;;;5066674;27;20193;-62
2022/01/16 09:40:29;;;;;;;39.40;21.60;;;6.70;99.90;;;;;;5066358;28;20108;-62
2022/01/16 09:42:57;;;;;;;39.45;22.15;;;6.70;99.90;;;;;;5066012;28;20052;-61
2022/01/16 09:45:24;;;;;;;39.30;21.77;;;6.70;99.90;;;;;;5066178;28;20059;-62
2022/01/16 09:47:51;;;;;;;39.50;21.60;;;6.70;99.90;;;;;;5065218;28;20059;-62
2022/01/16 09:50:22;;;;;;;34.25;20.30;;;6.70;99.90;;;;;;5065673;28;20096;-61
2022/01/16 09:52:49;;;;;;;37.45;18.40;;;6.80;99.90;;;;;;5067001;28;20064;-62
2022/01/16 09:55:18;;;;;;;31.95;20.45;;;6.80;99.90;;;;;;5066595;28;20053;-62
2022/01/16 09:57:47;;;;;;;30.55;18.02;;;6.80;99.90;;;;;;5065136;28;20887;-62
2022/01/16 10:00:17;;;;;;;33.20;19.70;;;6.90;99.90;;;;;;5064105;28;20059;-62
2022/01/16 10:02:44;;;;;;;37.33;19.92;;;6.90;99.90;;;;;;5065911;28;20052;-62
2022/01/16 10:05:26;;;;;;;34.75;19.67;;;7.00;99.90;;;;;;5064564;28;20199;-62
2022/01/16 10:07:55;;;;;;;33.25;19.08;;;7.00;99.90;;;;;;5063754;28;20055;-61
2022/01/16 10:10:26;;;;;;;32.03;19.80;;;7.00;99.90;;;;;;5065891;28;20163;-61
2022/01/16 10:12:57;;;;;;;36.28;18.85;;;7.10;99.90;;;;;;5066637;28;22270;-61
2022/01/16 10:15:26;;;;;;;36.08;19.23;;;7.10;99.90;;;;;;5065847;28;20060;-62
2022/01/16 10:17:54;;;;;;;31.95;18.17;;;7.10;99.90;;;;;;5066261;28;20258;-61
2022/01/16 10:20:22;;;;;;;36.22;18.15;;;7.10;99.90;;;;;;5066222;28;20053;-62
2022/01/16 10:22:50;;;;;;;32.20;17.85;;;7.10;99.90;;;;;;5065336;28;20164;-61
2022/01/16 10:25:34;;;;;;;41.28;19.40;;;7.20;99.90;;;;;;5066609;28;20063;-62
2022/01/16 10:28:04;;;;;;;40.08;18.63;;;7.20;99.90;;;;;;5065425;28;20055;-62
2022/01/16 10:30:40;;;;;;;33.70;18.13;;;7.20;99.90;;;;;;5066137;28;20071;-62
2022/01/16 10:33:12;;;;;;;35.13;17.13;;;7.20;99.90;;;;;;5066026;28;20053;-62
2022/01/16 10:35:40;;;;;;;29.20;16.85;;;7.30;99.90;;;;;;5065398;28;20049;-61
2022/01/16 10:38:16;;;;;;;32.75;18.17;;;7.30;99.90;;;;;;5065515;28;20053;-61
2022/01/16 10:40:44;;;;;;;32.00;17.50;;;7.30;99.90;;;;;;5066209;28;20056;-62
2022/01/16 10:43:16;;;;;;;29.15;17.10;;;7.30;99.90;;;;;;5065250;28;20063;-62
2022/01/16 10:45:44;;;;;;;31.95;16.35;;;7.40;99.90;;;;;;5066301;28;20186;-61
2022/01/16 10:48:13;;;;;;;33.47;16.75;;;7.40;99.90;;;;;;5065770;28;20053;-61
2022/01/16 10:50:42;;;;;;;30.98;16.10;;;7.40;99.90;;;;;;5065297;28;20140;-62
2022/01/16 10:53:13;;;;;;;27.95;15.50;;;7.50;99.90;;;;;;5065885;28;20049;-61
2022/01/16 10:55:44;;;;;;;28.27;15.20;;;7.40;99.90;;;;;;5065310;27;20049;-61
2022/01/16 10:58:14;;;;;;;38.08;16.52;;;7.50;99.90;;;;;;5064535;28;20060;-62
2022/01/16 11:00:43;;;;;;;36.58;15.02;;;7.50;99.90;;;;;;5065066;28;20053;-62
2022/01/16 11:03:12;;;;;;;34.33;15.00;;;7.50;99.80;;;;;;5064455;28;20058;-62
2022/01/16 11:05:41;;;;;;;32.03;14.70;;;7.50;99.80;;;;;;5064873;28;20144;-61
2022/01/16 11:08:12;;;;;;;33.28;15.40;;;7.50;99.80;;;;;;5065739;28;20049;-61
2022/01/16 11:10:40;;;;;;;34.30;16.13;;;7.50;99.80;;;;;;5065580;28;20146;-62
2022/01/16 11:13:09;;;;;;;27.65;13.88;;;7.50;99.70;;;;;;5064889;28;20048;-62
2022/01/16 11:15:39;;;;;;;30.70;13.77;;;7.50;99.70;;;;;;5066107;28;20440;-61
2022/01/16 11:18:07;;;;;;;32.33;14.18;;;7.50;99.70;;;;;;5064856;27;20053;-60
2022/01/16 11:20:36;;;;;;;29.98;13.88;;;7.60;99.60;;;;;;5064364;28;20531;-60
2022/01/16 11:23:13;;;;;;;33.63;13.57;;;7.50;99.60;;;;;;5065255;28;20053;-61
2022/01/16 11:25:41;;;;;;;27.67;13.32;;;7.50;99.60;;;;;;5065192;28;20059;-60
2022/01/16 11:28:11;;;;;;;25.52;12.30;;;7.50;99.50;;;;;;5065001;28;20142;-61
2022/01/16 11:30:41;;;;;;;27.33;12.75;;;7.60;99.50;;;;;;5065398;28;20059;-61
2022/01/16 11:33:08;;;;;;;28.58;12.38;;;7.60;99.50;;;;;;5064428;28;20091;-61
2022/01/16 11:35:44;;;;;;;24.00;11.77;;;7.60;99.40;;;;;;5065309;28;20063;-61
2022/01/16 11:38:12;;;;;;;25.65;11.13;;;7.60;99.60;;;;;;5064489;28;20049;-60
2022/01/16 11:40:44;;;;;;;23.35;11.48;;;7.60;99.30;;;;;;5064377;28;20060;-61
2022/01/16 11:43:24;;;;;;;21.05;11.13;;;7.60;99.30;;;;;;5065773;28;20060;-60
2022/01/16 11:46:05;;;;;;;27.77;10.15;;;7.60;99.20;;;;;;5065141;28;20060;-61
2022/01/16 11:48:44;;;;;;;22.83;10.07;;;7.60;99.10;;;;;;5065341;28;20075;-61
2022/01/16 11:51:52;;;;;;;20.30;9.68;;;7.70;99.10;;;;;;5066338;28;20107;-60
2022/01/16 11:54:25;;;;;;;20.00;8.13;;;7.70;99.00;;;;;;5039421;28;20061;-62
2022/01/16 11:57:00;;;;;;;20.17;7.90;;;7.70;98.90;;;;;;5038912;28;20133;-60
2022/01/16 11:59:29;;;;;;;23.30;8.63;;;7.70;98.80;;;;;;5053564;28;20057;-60
2022/01/16 12:01:59;;;;;;;21.10;8.05;;;7.70;98.80;;;;;;5063963;28;20057;-60
2022/01/16 12:04:49;;;;;;;21.08;7.90;;;7.70;98.80;;;;;;5064851;27;20056;-61
2022/01/16 12:07:51;;;;;;;18.20;8.48;;;7.70;98.70;;;;;;5064829;28;20057;-61
2022/01/16 12:10:54;;;;;;;19.15;7.75;;;7.80;98.60;;;;;;5062645;28;20258;-60
2022/01/16 12:13:53;;;;;;;17.95;7.65;;;7.80;98.40;;;;;;5064818;28;20788;-60
2022/01/16 12:16:38;;;;;;;30.00;9.15;;;7.80;98.30;;;;;;5067809;28;20049;-60
2022/01/16 12:19:46;;;;;;;22.80;7.30;;;7.80;98.30;;;;;;5068398;28;20996;-61
2022/01/16 12:22:18;;;;;;;17.17;6.88;;;7.80;98.10;;;;;;5068238;28;20079;-60
2022/01/16 12:24:49;;;;;;;22.05;7.22;;;7.80;98.10;;;;;;5066315;28;20056;-60
2022/01/16 12:27:39;;;;;;;14.50;6.47;;;7.90;98.00;;;;;;5067691;28;20048;-60
2022/01/16 12:30:38;;;;;;;16.85;7.00;;;7.80;97.80;;;;;;5067453;28;20582;-61
2022/01/16 12:33:24;;;;;;;18.30;6.72;;;7.80;97.80;;;;;;5067226;28;20045;-60
2022/01/16 12:39:00;;;;;;;23.48;6.90;;;7.90;97.60;;;;;;5067371;27;20061;-61
2022/01/16 12:41:31;;;;;;;17.65;7.38;;;7.90;97.50;;;;;;5068274;28;20064;-60
2022/01/16 12:44:00;;;;;;;13.82;6.55;;;7.90;97.50;;;;;;5068771;28;20963;-60
2022/01/16 12:46:33;;;;;;;19.92;6.70;;;7.90;97.40;;;;;;5067768;28;20056;-60
2022/01/16 12:49:03;;;;;;;13.32;6.10;;;7.90;97.20;;;;;;5067979;27;20057;-60
2022/01/16 12:51:34;;;;;;;15.38;6.00;;;7.90;97.10;;;;;;5067691;28;20060;-60
2022/01/16 12:54:04;;;;;;;18.48;6.22;;;7.90;97.00;;;;;;5067703;28;20045;-60
2022/01/16 12:56:34;;;;;;;18.27;6.05;;;7.90;96.90;;;;;;5067555;28;20052;-60
2022/01/16 12:59:11;;;;;;;17.35;6.07;;;7.90;96.90;;;;;;5068489;28;20546;-61
2022/01/16 13:01:42;;;;;;;16.60;6.88;;;7.90;96.70;;;;;;5067565;28;20089;-61
2022/01/16 13:04:18;;;;;;;15.43;5.80;;;7.90;96.60;;;;;;5068166;28;20049;-61
2022/01/16 13:06:46;;;;;;;17.83;6.18;;;7.90;96.70;;;;;;5067372;28;20049;-61
2022/01/16 13:09:13;;;;;;;17.98;6.80;;;7.90;96.50;;;;;;5067509;28;20063;-61
2022/01/16 13:11:42;;;;;;;14.68;6.15;;;7.90;96.50;;;;;;5067960;28;20048;-61
2022/01/16 13:14:13;;;;;;;12.13;6.03;;;7.90;96.40;;;;;;5067022;28;22096;-59
2022/01/16 13:16:41;;;;;;;18.77;6.95;;;7.80;96.40;;;;;;5066282;27;20048;-59
2022/01/16 13:19:13;;;;;;;19.55;6.72;;;7.80;96.40;;;;;;5067222;28;20057;-59
2022/01/16 13:21:48;;;;;;;21.35;6.90;;;7.80;96.40;;;;;;5065812;28;20053;-59
2022/01/16 13:24:36;;;;;;;16.83;6.22;;;7.80;96.40;;;;;;5067549;28;20052;-59
2022/01/16 13:27:06;;;;;;;15.93;6.05;;;7.80;96.30;;;;;;5067072;28;20056;-59
2022/01/16 13:29:33;;;;;;;17.48;6.85;;;7.80;96.30;;;;;;5064349;28;20049;-59
2022/01/16 13:32:04;;;;;;;21.17;7.40;;;7.80;96.30;;;;;;5065571;28;20054;-59
2022/01/16 13:34:53;;;;;;;17.85;6.40;;;7.80;96.30;;;;;;5067386;27;20049;-59